createdAt,value
2024-01-31T00:02:10.808Z,103166.16
2024-01-31T00:04:38.969Z,103163.78
2024-01-31T00:07:06.046Z,103160.47
2024-01-31T00:09:33.397Z,103160.94
2024-01-31T00:12:00.366Z,103172.66
2024-01-31T00:14:27.342Z,103168.84
2024-01-31T00:16:54.838Z,103170.53
2024-01-31T00:19:22.031Z,103167.06
2024-01-31T00:21:49.098Z,103154.00
2024-01-31T00:24:16.017Z,103156.25
2024-01-31T00:26:42.917Z,103165.63
2024-01-31T00:29:10.379Z,103155.84
2024-01-31T00:31:37.436Z,103166.50
2024-01-31T00:34:04.493Z,103153.22
2024-01-31T00:36:31.424Z,103154.44
2024-01-31T00:39:00.667Z,103156.44
2024-01-31T00:41:28.361Z,103151.03
2024-01-31T00:43:55.252Z,103150.31
2024-01-31T00:46:22.733Z,103155.44
2024-01-31T00:48:49.868Z,103155.44
2024-01-31T00:51:16.799Z,103145.13
2024-01-31T00:53:44.175Z,103149.78
2024-01-31T00:56:11.179Z,103147.78
2024-01-31T00:58:39.652Z,103159.03
2024-01-31T01:01:06.885Z,103155.13
2024-01-31T01:03:33.968Z,103159.69
2024-01-31T01:06:01.790Z,103159.63
2024-01-31T01:08:28.769Z,103157.66
2024-01-31T01:10:56.924Z,103157.34
2024-01-31T01:13:24.087Z,103152.06
2024-01-31T01:15:51.033Z,103140.91
2024-01-31T01:18:19.256Z,103136.88
2024-01-31T01:20:46.943Z,103136.09
2024-01-31T01:23:16.296Z,103138.78
2024-01-31T01:25:43.785Z,103132.94
2024-01-31T01:28:11.152Z,103122.47
2024-01-31T01:30:38.432Z,103131.41
2024-01-31T01:33:05.668Z,103139.16
2024-01-31T01:35:32.591Z,103131.25
2024-01-31T01:37:59.584Z,103132.72
2024-01-31T01:40:26.526Z,103135.47
2024-01-31T01:42:54.962Z,103130.47
2024-01-31T01:45:22.008Z,103130.03
2024-01-31T01:47:52.203Z,103135.34
2024-01-31T01:50:20.602Z,103129.28
2024-01-31T01:52:48.594Z,103127.50
2024-01-31T01:55:15.849Z,103130.22
2024-01-31T01:57:43.986Z,103125.22
2024-01-31T02:00:11.773Z,103139.91
2024-01-31T02:02:39.373Z,103132.13
2024-01-31T02:05:09.174Z,103125.22
2024-01-31T02:07:37.505Z,103121.63
2024-01-31T02:10:05.743Z,103113.03
2024-01-31T02:12:33.312Z,103105.94
2024-01-31T02:15:00.834Z,103100.78
2024-01-31T02:17:30.635Z,103092.09
2024-01-31T02:19:57.815Z,103099.66
2024-01-31T02:22:24.788Z,103101.38
2024-01-31T02:24:51.806Z,103096.72
2024-01-31T02:27:18.867Z,103098.13
2024-01-31T02:29:45.927Z,103099.56
2024-01-31T02:32:13.669Z,103108.09
2024-01-31T02:34:40.858Z,103104.81
2024-01-31T02:37:07.973Z,103098.16
2024-01-31T02:39:35.120Z,103102.16
2024-01-31T02:42:02.117Z,103097.38
2024-01-31T02:44:29.744Z,103104.59
2024-01-31T02:46:56.759Z,103099.53
2024-01-31T02:49:23.845Z,103102.50
2024-01-31T02:51:51.037Z,103099.38
2024-01-31T02:54:17.932Z,103105.03
2024-01-31T02:56:45.207Z,103098.47
2024-01-31T02:59:12.103Z,103089.56
2024-01-31T03:01:46.092Z,103090.94
2024-01-31T03:04:16.181Z,103083.88
2024-01-31T03:06:43.307Z,103086.47
2024-01-31T03:09:19.092Z,103077.09
2024-01-31T03:11:50.391Z,103081.41
2024-01-31T03:14:17.392Z,103081.25
2024-01-31T03:16:45.562Z,103074.25
2024-01-31T03:19:14.876Z,103072.09
2024-01-31T03:21:43.902Z,103076.88
2024-01-31T03:24:19.077Z,103074.31
2024-01-31T03:26:52.565Z,103078.69
2024-01-31T03:29:27.099Z,103070.38
2024-01-31T03:31:58.270Z,103072.28
2024-01-31T03:34:29.005Z,103061.16
2024-01-31T03:36:56.621Z,103066.47
2024-01-31T03:39:28.376Z,103059.56
2024-01-31T03:42:04.534Z,103067.84
2024-01-31T03:44:35.013Z,103072.63
2024-01-31T03:47:02.273Z,103070.47
2024-01-31T03:49:32.185Z,103074.34
2024-01-31T03:52:07.116Z,103068.44
2024-01-31T03:54:36.571Z,103068.84
2024-01-31T03:57:04.088Z,103068.94
2024-01-31T03:59:32.047Z,103060.84
2024-01-31T04:02:00.719Z,103066.53
2024-01-31T04:04:28.818Z,103052.84
2024-01-31T04:06:57.350Z,103048.69
2024-01-31T04:09:27.355Z,103052.84
2024-01-31T04:11:57.315Z,103053.97
2024-01-31T04:14:26.214Z,103062.19
2024-01-31T04:16:53.174Z,103058.91
2024-01-31T04:19:20.224Z,103050.59
2024-01-31T04:21:52.538Z,103057.53
2024-01-31T04:24:19.929Z,103055.63
2024-01-31T04:26:47.325Z,103055.63
2024-01-31T04:29:15.585Z,103045.25
2024-01-31T04:31:42.733Z,103051.38
2024-01-31T04:34:14.066Z,103048.22
2024-01-31T04:36:43.528Z,103048.50
2024-01-31T04:39:10.895Z,103050.69
2024-01-31T04:41:38.904Z,103053.44
2024-01-31T04:44:09.723Z,103056.97
2024-01-31T04:46:39.483Z,103056.88
2024-01-31T04:49:07.500Z,103063.34
2024-01-31T04:51:34.822Z,103057.88
2024-01-31T04:54:05.397Z,103052.97
2024-01-31T04:56:39.000Z,103060.50
2024-01-31T04:59:08.761Z,103049.97
2024-01-31T05:01:39.008Z,103058.50
2024-01-31T05:04:09.193Z,103049.63
2024-01-31T05:06:38.400Z,103052.13
2024-01-31T05:09:08.319Z,103048.97
2024-01-31T05:11:39.197Z,103041.13
2024-01-31T05:14:13.472Z,103041.38
2024-01-31T05:16:44.212Z,103050.69
2024-01-31T05:19:13.639Z,103062.53
2024-01-31T05:22:00.558Z,103062.31
2024-01-31T05:24:30.288Z,103067.88
2024-01-31T05:27:04.740Z,103059.28
2024-01-31T05:29:33.115Z,103067.00
2024-01-31T05:32:02.361Z,103071.00
2024-01-31T05:34:31.428Z,103063.47
2024-01-31T05:37:03.219Z,103065.19
2024-01-31T05:39:37.548Z,103060.75
2024-01-31T05:42:05.942Z,103060.22
2024-01-31T05:44:37.331Z,103054.16
2024-01-31T05:47:06.338Z,103059.16
2024-01-31T05:49:40.069Z,103057.94
2024-01-31T05:52:08.435Z,103070.00
2024-01-31T05:54:36.699Z,103067.53
2024-01-31T05:57:04.942Z,103069.00
2024-01-31T05:59:34.449Z,103066.13
2024-01-31T06:02:02.669Z,103070.88
2024-01-31T06:04:29.809Z,103070.13
2024-01-31T06:06:58.027Z,103069.41
2024-01-31T06:09:28.357Z,103085.09
2024-01-31T06:11:56.763Z,103084.66
2024-01-31T06:14:26.257Z,103082.41
2024-01-31T06:16:53.415Z,103083.72
2024-01-31T06:19:22.391Z,103078.81
2024-01-31T06:21:56.020Z,103082.13
2024-01-31T06:24:23.110Z,103083.56
2024-01-31T06:26:51.570Z,103079.91
2024-01-31T06:29:19.870Z,103085.50
2024-01-31T06:31:49.010Z,103088.97
2024-01-31T06:34:16.778Z,103095.28
2024-01-31T06:36:57.603Z,103087.41
2024-01-31T06:39:28.527Z,103092.19
2024-01-31T06:41:55.992Z,103092.06
2024-01-31T06:44:24.610Z,103104.34
2024-01-31T06:46:54.933Z,103087.25
2024-01-31T06:49:23.618Z,103088.50
2024-01-31T06:51:51.197Z,103093.75
2024-01-31T06:54:22.912Z,103096.56
2024-01-31T06:56:53.719Z,103105.69
2024-01-31T06:59:20.804Z,103111.38
2024-01-31T07:01:49.121Z,103108.78
2024-01-31T07:04:19.559Z,103108.50
2024-01-31T07:06:50.616Z,103113.53
2024-01-31T07:09:18.281Z,103109.78
2024-01-31T07:11:45.673Z,103112.53
2024-01-31T07:14:13.832Z,103113.00
2024-01-31T07:16:41.866Z,103111.16
2024-01-31T07:19:08.969Z,103103.13
2024-01-31T07:21:38.978Z,103106.78
2024-01-31T07:24:15.845Z,103113.59
2024-01-31T07:27:09.001Z,103110.63
2024-01-31T07:29:39.111Z,103108.47
2024-01-31T07:32:10.489Z,103118.81
2024-01-31T07:34:38.957Z,103108.06
2024-01-31T07:37:08.309Z,103110.84
2024-01-31T07:39:35.958Z,103111.41
2024-01-31T07:42:04.426Z,103113.22
2024-01-31T07:44:34.853Z,103115.88
2024-01-31T07:47:04.602Z,103124.91
2024-01-31T07:49:33.421Z,103119.34
2024-01-31T07:52:00.873Z,103117.50
2024-01-31T07:54:28.203Z,103114.19
2024-01-31T07:56:55.223Z,103121.38
2024-01-31T07:59:23.861Z,103118.63
2024-01-31T08:01:51.351Z,103113.03
2024-01-31T08:04:20.662Z,103119.38
2024-01-31T08:06:48.604Z,103125.06
2024-01-31T08:09:22.520Z,103115.81
2024-01-31T08:11:55.151Z,103121.50
2024-01-31T08:14:22.148Z,103117.56
2024-01-31T08:16:51.553Z,103117.00
2024-01-31T08:19:20.141Z,103121.44
2024-01-31T08:21:47.258Z,103122.66
2024-01-31T08:24:14.337Z,103126.28
2024-01-31T08:26:41.256Z,103119.97
2024-01-31T08:29:15.711Z,103119.53
2024-01-31T08:31:49.968Z,103123.16
2024-01-31T08:34:18.716Z,103129.72
2024-01-31T08:36:45.931Z,103121.94
2024-01-31T08:39:13.686Z,103126.56
2024-01-31T08:41:40.902Z,103124.53
2024-01-31T08:44:10.557Z,103130.78
2024-01-31T08:46:48.040Z,103126.44
2024-01-31T08:49:27.928Z,103130.06
2024-01-31T08:51:56.152Z,103129.03
2024-01-31T08:54:23.167Z,103119.97
2024-01-31T08:56:51.257Z,103123.16
2024-01-31T08:59:19.025Z,103122.81
2024-01-31T09:01:49.889Z,103127.53
2024-01-31T09:04:19.489Z,103125.25
2024-01-31T09:06:48.290Z,103118.56
2024-01-31T09:09:15.443Z,103111.09
2024-01-31T09:11:42.661Z,103123.69
2024-01-31T09:14:10.160Z,103125.25
2024-01-31T09:16:37.184Z,103132.34
2024-01-31T09:19:05.220Z,103138.63
2024-01-31T09:21:35.289Z,103133.91
2024-01-31T09:24:03.687Z,103118.16
2024-01-31T09:26:33.200Z,103135.47
2024-01-31T09:29:00.651Z,103140.16
2024-01-31T09:31:28.848Z,103133.00
2024-01-31T09:33:57.017Z,103132.63
2024-01-31T09:36:26.551Z,103136.09
2024-01-31T09:38:53.602Z,103132.66
2024-01-31T09:41:22.329Z,103124.72
2024-01-31T09:43:49.352Z,103123.13
2024-01-31T09:46:16.850Z,103123.34
2024-01-31T09:48:44.738Z,103125.53
2024-01-31T09:51:15.012Z,103125.25
2024-01-31T09:53:46.299Z,103128.09
2024-01-31T09:56:13.309Z,103128.50
2024-01-31T09:58:40.659Z,103122.44
2024-01-31T10:01:17.231Z,103131.34
2024-01-31T10:03:49.132Z,103126.78
2024-01-31T10:06:16.201Z,103120.03
2024-01-31T10:08:43.373Z,103107.97
2024-01-31T10:11:10.264Z,103107.94
2024-01-31T10:13:37.500Z,103111.53
2024-01-31T10:16:05.579Z,103106.81
2024-01-31T10:18:33.250Z,103105.38
2024-01-31T10:21:00.331Z,103095.13
2024-01-31T10:23:28.848Z,103100.97
2024-01-31T10:25:56.377Z,103098.56
2024-01-31T10:28:23.940Z,103098.63
2024-01-31T10:30:51.478Z,103097.78
2024-01-31T10:33:22.461Z,103092.72
2024-01-31T10:36:25.061Z,103094.31
2024-01-31T10:38:37.268Z,103089.19
2024-01-31T10:41:07.700Z,103088.59
2024-01-31T10:43:38.065Z,103079.75
2024-01-31T10:46:05.115Z,103085.25
2024-01-31T10:48:32.260Z,103074.50
2024-01-31T10:51:04.398Z,103074.22
2024-01-31T10:53:33.071Z,103065.84
2024-01-31T10:56:01.522Z,103070.31
2024-01-31T10:58:30.519Z,103067.22
2024-01-31T11:00:57.645Z,103059.34
2024-01-31T11:03:24.917Z,103055.91
2024-01-31T11:05:54.315Z,103058.31
2024-01-31T11:08:23.531Z,103054.25
2024-01-31T11:10:53.553Z,103049.03
2024-01-31T11:13:22.043Z,103040.09
2024-01-31T11:15:48.989Z,103042.06
2024-01-31T11:18:17.331Z,103036.44
2024-01-31T11:20:51.378Z,103030.47
2024-01-31T11:23:20.618Z,103025.34
2024-01-31T11:25:47.767Z,103016.69
2024-01-31T11:28:17.240Z,103016.41
2024-01-31T11:30:45.151Z,103019.22
2024-01-31T11:33:12.834Z,103014.63
2024-01-31T11:35:39.915Z,103010.53
2024-01-31T11:38:09.836Z,103006.09
2024-01-31T11:40:36.980Z,103005.88
2024-01-31T11:43:05.816Z,103003.09
2024-01-31T11:45:33.248Z,103001.03
2024-01-31T11:48:00.545Z,102997.53
2024-01-31T11:50:28.628Z,103004.78
2024-01-31T11:52:56.858Z,103000.38
2024-01-31T11:55:29.902Z,102993.28
2024-01-31T11:57:57.395Z,102991.53
2024-01-31T12:00:25.840Z,102985.97
2024-01-31T12:02:56.057Z,102987.63
2024-01-31T12:05:23.896Z,102975.19
2024-01-31T12:07:58.546Z,102976.00
2024-01-31T12:10:29.620Z,102974.78
2024-01-31T12:13:00.723Z,102962.41
2024-01-31T12:15:28.539Z,102960.19
2024-01-31T12:17:56.048Z,102959.16
2024-01-31T12:20:23.752Z,102960.34
2024-01-31T12:22:51.017Z,102959.94
2024-01-31T12:25:18.017Z,102964.19
2024-01-31T12:27:45.222Z,102957.56
2024-01-31T12:30:12.903Z,102957.94
2024-01-31T12:32:40.035Z,102948.28
2024-01-31T12:35:07.525Z,102955.50
2024-01-31T12:37:36.171Z,102951.91
2024-01-31T12:40:04.117Z,102947.41
2024-01-31T12:42:31.720Z,102929.09
2024-01-31T12:44:59.371Z,102935.16
2024-01-31T12:47:28.612Z,102925.41
2024-01-31T12:49:55.716Z,102927.66
2024-01-31T12:52:26.181Z,102917.91
2024-01-31T12:54:54.063Z,102919.84
2024-01-31T12:57:21.985Z,102913.00
2024-01-31T12:59:49.238Z,102910.16
2024-01-31T13:02:16.382Z,102908.53
2024-01-31T13:04:43.540Z,102891.66
2024-01-31T13:07:11.452Z,102905.66
2024-01-31T13:09:38.837Z,102906.97
2024-01-31T13:12:09.866Z,102897.59
2024-01-31T13:14:39.358Z,102897.94
2024-01-31T13:17:06.602Z,102901.75
2024-01-31T13:19:33.701Z,102894.06
2024-01-31T13:22:03.568Z,102886.75
2024-01-31T13:24:32.527Z,102885.28
2024-01-31T13:26:59.610Z,102888.59
2024-01-31T13:29:26.949Z,102880.25
2024-01-31T13:31:54.064Z,102884.97
2024-01-31T13:34:21.733Z,102888.06
2024-01-31T13:36:49.071Z,102891.31
2024-01-31T13:39:16.367Z,102884.56
2024-01-31T13:41:43.517Z,102880.84
2024-01-31T13:44:10.517Z,102877.03
2024-01-31T13:46:41.198Z,102865.63
2024-01-31T13:49:08.638Z,102877.59
2024-01-31T13:51:36.985Z,102868.56
2024-01-31T13:54:05.013Z,102872.03
2024-01-31T13:56:32.153Z,102875.19
2024-01-31T13:58:59.118Z,102877.09
2024-01-31T14:01:27.018Z,102874.41
2024-01-31T14:03:54.066Z,102879.25
2024-01-31T14:06:21.292Z,102874.91
2024-01-31T14:08:48.412Z,102867.69
2024-01-31T14:11:19.229Z,102864.47
2024-01-31T14:13:47.237Z,102852.41
2024-01-31T14:16:15.775Z,102852.41
2024-01-31T14:18:43.148Z,102845.34
2024-01-31T14:21:15.874Z,102838.69
2024-01-31T14:23:45.751Z,102841.47
2024-01-31T14:26:14.632Z,102840.78
2024-01-31T14:28:41.666Z,102845.84
2024-01-31T14:31:10.054Z,102837.72
2024-01-31T14:33:37.631Z,102836.59
2024-01-31T14:36:05.402Z,102835.34
2024-01-31T14:38:32.964Z,102834.72
2024-01-31T14:41:01.944Z,102839.13
2024-01-31T14:43:29.934Z,102839.63
2024-01-31T14:45:56.946Z,102822.69
2024-01-31T14:48:24.039Z,102820.22
2024-01-31T14:50:51.191Z,102821.66
2024-01-31T14:53:18.326Z,102819.63
2024-01-31T14:55:45.274Z,102815.63
2024-01-31T14:58:12.329Z,102816.44
2024-01-31T15:00:39.404Z,102808.81
2024-01-31T15:03:07.145Z,102817.75
2024-01-31T15:05:34.388Z,102817.97
2024-01-31T15:08:02.034Z,102810.88
2024-01-31T15:10:28.951Z,102816.97
2024-01-31T15:12:56.074Z,102819.94
2024-01-31T15:15:23.275Z,102819.59
2024-01-31T15:17:50.532Z,102812.06
2024-01-31T15:20:17.870Z,102813.53
2024-01-31T15:22:46.627Z,102810.34
2024-01-31T15:25:13.936Z,102813.50
2024-01-31T15:27:43.577Z,102811.34
2024-01-31T15:30:11.188Z,102809.63
2024-01-31T15:32:38.386Z,102811.81
2024-01-31T15:35:06.046Z,102818.41
2024-01-31T15:37:33.123Z,102812.72
2024-01-31T15:40:00.378Z,102810.28
2024-01-31T15:42:27.478Z,102813.88
2024-01-31T15:44:56.668Z,102811.34
2024-01-31T15:47:23.670Z,102806.13
2024-01-31T15:49:50.750Z,102805.84
2024-01-31T15:52:19.124Z,102803.03
2024-01-31T15:54:46.420Z,102809.88
2024-01-31T15:57:14.261Z,102818.03
2024-01-31T15:59:41.199Z,102818.22
2024-01-31T16:02:08.153Z,102814.81
2024-01-31T16:04:35.205Z,102812.63
2024-01-31T16:07:03.902Z,102815.56
2024-01-31T16:09:31.152Z,102821.72
2024-01-31T16:11:58.243Z,102823.38
2024-01-31T16:14:25.887Z,102828.13
2024-01-31T16:16:53.132Z,102822.28
2024-01-31T16:19:20.839Z,102817.75
2024-01-31T16:21:49.465Z,102823.53
2024-01-31T16:24:18.659Z,102822.63
2024-01-31T16:26:45.880Z,102825.19
2024-01-31T16:29:12.975Z,102821.78
2024-01-31T16:31:42.803Z,102823.19
2024-01-31T16:34:10.212Z,102819.88
2024-01-31T16:36:37.453Z,102820.41
2024-01-31T16:39:04.649Z,102824.09
2024-01-31T16:41:31.818Z,102816.94
2024-01-31T16:43:58.814Z,102825.19
2024-01-31T16:46:27.145Z,102821.75
2024-01-31T16:48:55.814Z,102821.94
2024-01-31T16:51:23.787Z,102825.19
2024-01-31T16:53:51.352Z,102819.72
2024-01-31T16:56:18.994Z,102818.25
2024-01-31T16:58:45.944Z,102818.72
2024-01-31T17:01:12.932Z,102812.09
2024-01-31T17:03:41.390Z,102815.44
2024-01-31T17:06:08.825Z,102808.50
2024-01-31T17:08:37.721Z,102813.34
2024-01-31T17:11:12.985Z,102820.50
2024-01-31T17:13:39.885Z,102820.13
2024-01-31T17:16:07.082Z,102820.06
2024-01-31T17:18:35.339Z,102824.19
2024-01-31T17:21:03.074Z,102821.53
2024-01-31T17:23:32.588Z,102832.56
2024-01-31T17:25:59.561Z,102827.34
2024-01-31T17:28:26.795Z,102835.47
2024-01-31T17:30:53.980Z,102837.97
2024-01-31T17:33:21.765Z,102837.38
2024-01-31T17:35:49.087Z,102837.06
2024-01-31T17:38:16.512Z,102843.81
2024-01-31T17:40:49.251Z,102844.63
2024-01-31T17:43:17.489Z,102840.88
2024-01-31T17:45:44.408Z,102846.50
2024-01-31T17:48:11.602Z,102841.81
2024-01-31T17:50:38.621Z,102842.34
2024-01-31T17:53:06.007Z,102839.66
2024-01-31T17:55:33.000Z,102840.50
2024-01-31T17:57:59.949Z,102846.00
2024-01-31T18:00:26.943Z,102840.56
2024-01-31T18:02:54.113Z,102842.97
2024-01-31T18:05:21.544Z,102846.22
2024-01-31T18:07:48.866Z,102843.09
2024-01-31T18:10:15.843Z,102849.81
2024-01-31T18:12:43.999Z,102847.88
2024-01-31T18:15:19.084Z,102847.56
2024-01-31T18:17:49.098Z,102853.03
2024-01-31T18:20:17.235Z,102854.25
2024-01-31T18:22:45.337Z,102856.25
2024-01-31T18:25:12.397Z,102847.72
2024-01-31T18:27:41.522Z,102839.44
2024-01-31T18:30:09.730Z,102835.91
2024-01-31T18:32:37.062Z,102838.28
2024-01-31T18:35:04.644Z,102843.38
2024-01-31T18:37:31.618Z,102846.97
2024-01-31T18:39:58.602Z,102846.59
2024-01-31T18:42:25.612Z,102853.88
2024-01-31T18:44:52.846Z,102853.50
2024-01-31T18:47:20.146Z,102842.53
2024-01-31T18:49:47.583Z,102840.66
2024-01-31T18:52:14.553Z,102839.50
2024-01-31T18:54:41.495Z,102844.94
2024-01-31T18:57:08.657Z,102852.28
2024-01-31T18:59:36.205Z,102846.88
2024-01-31T19:02:04.221Z,102845.75
2024-01-31T19:04:32.641Z,102839.97
2024-01-31T19:07:00.172Z,102836.50
2024-01-31T19:09:28.476Z,102849.09
2024-01-31T19:11:55.598Z,102844.72
2024-01-31T19:14:22.791Z,102837.75
2024-01-31T19:16:50.891Z,102847.22
2024-01-31T19:19:18.105Z,102846.72
2024-01-31T19:21:45.546Z,102843.66
2024-01-31T19:24:12.689Z,102844.09
2024-01-31T19:26:39.806Z,102846.13
2024-01-31T19:29:07.416Z,102845.34
2024-01-31T19:31:34.688Z,102845.38
2024-01-31T19:34:02.951Z,102845.41
2024-01-31T19:36:30.664Z,102851.31
2024-01-31T19:38:57.792Z,102854.84
2024-01-31T19:41:27.459Z,102839.94
2024-01-31T19:43:55.426Z,102840.31
2024-01-31T19:46:24.159Z,102849.38
2024-01-31T19:48:51.399Z,102843.50
2024-01-31T19:51:19.736Z,102850.19
2024-01-31T19:53:48.469Z,102853.72
2024-01-31T19:56:15.467Z,102861.19
2024-01-31T19:58:42.837Z,102857.25
2024-01-31T20:01:10.058Z,102854.91
2024-01-31T20:03:37.192Z,102862.00
2024-01-31T20:06:04.521Z,102858.03
2024-01-31T20:08:34.433Z,102857.25
2024-01-31T20:11:02.346Z,102859.56
2024-01-31T20:13:30.931Z,102864.25
2024-01-31T20:15:57.956Z,102874.81
2024-01-31T20:18:25.083Z,102867.75
2024-01-31T20:20:54.021Z,102866.97
2024-01-31T20:23:21.714Z,102869.44
2024-01-31T20:25:49.444Z,102869.03
2024-01-31T20:28:17.291Z,102862.75
2024-01-31T20:30:44.308Z,102865.13
2024-01-31T20:33:11.654Z,102869.81
2024-01-31T20:35:38.893Z,102856.50
2024-01-31T20:38:06.929Z,102857.25
2024-01-31T20:40:33.886Z,102864.75
2024-01-31T20:43:01.082Z,102862.38
2024-01-31T20:45:29.839Z,102857.66
2024-01-31T20:47:56.990Z,102851.78
2024-01-31T20:50:24.200Z,102857.66
2024-01-31T20:52:51.251Z,102851.75
2024-01-31T20:55:21.318Z,102853.31
2024-01-31T20:57:48.457Z,102841.94
2024-01-31T21:00:16.421Z,102839.59
2024-01-31T21:02:46.142Z,102836.06
2024-01-31T21:05:13.226Z,102840.72
2024-01-31T21:07:40.895Z,102838.41
2024-01-31T21:10:12.081Z,102835.25
2024-01-31T21:12:44.586Z,102830.16
2024-01-31T21:15:12.461Z,102829.72
2024-01-31T21:17:39.660Z,102827.38
2024-01-31T21:20:09.994Z,102828.94
2024-01-31T21:22:39.849Z,102824.22
2024-01-31T21:25:07.908Z,102832.09
2024-01-31T21:27:36.136Z,102811.28
2024-01-31T21:30:03.945Z,102809.69
2024-01-31T21:32:32.986Z,102802.63
2024-01-31T21:35:00.266Z,102795.97
2024-01-31T21:37:28.168Z,102802.59
2024-01-31T21:39:55.257Z,102789.69
2024-01-31T21:42:22.816Z,102797.91
2024-01-31T21:44:49.857Z,102791.25
2024-01-31T21:47:16.978Z,102792.84
2024-01-31T21:49:51.882Z,102788.88
2024-01-31T21:52:19.021Z,102790.84
2024-01-31T21:54:45.925Z,102794.72
2024-01-31T21:57:14.869Z,102797.88
2024-01-31T21:59:42.454Z,102803.06
2024-01-31T22:02:10.593Z,102798.38
2024-01-31T22:04:37.727Z,102796.03
2024-01-31T22:07:05.270Z,102797.22
2024-01-31T22:09:32.823Z,102793.69
2024-01-31T22:12:00.517Z,102797.59
2024-01-31T22:14:28.430Z,102799.16
2024-01-31T22:16:56.673Z,102806.22
2024-01-31T22:19:23.916Z,102801.53
2024-01-31T22:21:50.967Z,102799.16
2024-01-31T22:24:17.903Z,102805.06
2024-01-31T22:26:45.248Z,102796.41
2024-01-31T22:29:12.252Z,102795.22
2024-01-31T22:31:45.051Z,102794.34
2024-01-31T22:34:12.617Z,102784.13
2024-01-31T22:36:39.890Z,102779.81
2024-01-31T22:39:07.041Z,102782.53
2024-01-31T22:41:34.030Z,102778.19
2024-01-31T22:44:06.202Z,102777.72
2024-01-31T22:46:34.554Z,102778.91
2024-01-31T22:49:01.582Z,102780.56
2024-01-31T22:51:29.526Z,102775.34
2024-01-31T22:53:57.316Z,102778.91
2024-01-31T22:56:24.270Z,102777.06
2024-01-31T22:58:51.200Z,102782.41
2024-01-31T23:01:18.373Z,102798.81
2024-01-31T23:03:45.555Z,102792.13
2024-01-31T23:06:16.387Z,102782.38
2024-01-31T23:08:45.817Z,102782.63
2024-01-31T23:11:13.002Z,102789.16
2024-01-31T23:13:40.043Z,102787.72
2024-01-31T23:16:07.370Z,102788.66
2024-01-31T23:18:35.211Z,102789.66
2024-01-31T23:21:06.604Z,102791.75
2024-01-31T23:23:33.717Z,102783.94
2024-01-31T23:26:00.695Z,102782.50
2024-01-31T23:28:27.996Z,102784.84
2024-01-31T23:30:54.968Z,102779.44
2024-01-31T23:33:22.276Z,102778.16
2024-01-31T23:35:49.404Z,102774.63
2024-01-31T23:38:16.594Z,102778.13
2024-01-31T23:40:43.848Z,102773.03
2024-01-31T23:43:11.060Z,102775.22
2024-01-31T23:45:38.082Z,102767.06
2024-01-31T23:48:05.774Z,102758.84
2024-01-31T23:50:32.832Z,102757.25
2024-01-31T23:53:00.003Z,102751.34
2024-01-31T23:55:27.469Z,102750.13
2024-01-31T23:57:55.331Z,102749.38
